Time;durP1;ratioP1;P1;durP2;ratioP2;P2;SDS_P1;SDS_P2;PMS_P1;PMS_P2;Temp;Humidity;BMP_temperature;BMP_pressure;BME280_temperature;BME280_humidity;BME280_pressure;Samples;Min_cycle;Max_cycle;Signal;HPM_P1;HPM_P2
2024/03/18 00:02:10;;;;;;;;;;;8.50;99.90;;;;;;21162983;28;19911;-78
2024/03/18 00:12:10;;;;;;;;;;;8.50;99.90;;;;;;21160775;28;19923;-78
2024/03/18 00:22:11;;;;;;;;;;;8.50;99.90;;;;;;21161244;28;19919;-78
2024/03/18 00:32:12;;;;;;;;;;;8.50;99.90;;;;;;21146513;28;19916;-77
2024/03/18 00:42:12;;;;;;;;;;;8.50;99.90;;;;;;21156849;28;19919;-77
2024/03/18 00:52:13;;;;;;;;;;;8.40;99.90;;;;;;21164389;28;19919;-78
2024/03/18 01:02:14;;;;;;;;;;;8.40;99.90;;;;;;21163066;28;19958;-78
2024/03/18 01:12:14;;;;;;;;;;;8.40;99.90;;;;;;21161738;28;19915;-78
2024/03/18 01:22:15;;;;;;;;;;;8.40;99.90;;;;;;21160427;28;19912;-77
2024/03/18 01:32:16;;;;;;;;;;;8.30;99.90;;;;;;21152382;28;20286;-78
2024/03/18 01:42:17;;;;;;;;;;;8.30;99.90;;;;;;21181707;28;20004;-76
2024/03/18 01:52:19;;;;;;;;;;;8.30;99.90;;;;;;21172654;28;19917;-77
2024/03/18 02:02:19;;;;;;;;;;;8.00;99.90;;;;;;21183537;28;20023;-77
2024/03/18 02:12:20;;;;;;;;;;;8.10;99.90;;;;;;21177193;28;19962;-77
2024/03/18 02:22:21;;;;;;;;;;;8.20;99.90;;;;;;21178110;28;19912;-77
2024/03/18 02:32:21;;;;;;;;;;;8.20;99.90;;;;;;21179812;28;19915;-78
2024/03/18 02:42:22;;;;;;;;;;;8.30;99.90;;;;;;21176344;28;19912;-78
2024/03/18 02:52:24;;;;;;;;;;;8.20;99.90;;;;;;21161035;27;20342;-77
2024/03/18 03:02:25;;;;;;;;;;;8.30;99.90;;;;;;21179794;28;19919;-78
2024/03/18 03:12:26;;;;;;;;;;;8.30;99.90;;;;;;21136566;28;20302;-77
2024/03/18 03:22:27;;;;;;;;;;;8.20;99.90;;;;;;21148599;28;19912;-77
2024/03/18 03:32:28;;;;;;;;;;;8.20;99.90;;;;;;21138564;28;19916;-78
2024/03/18 03:42:28;;;;;;;;;;;8.30;99.90;;;;;;21160687;28;19948;-78
2024/03/18 03:52:29;;;;;;;;;;;8.20;99.90;;;;;;21128414;28;19924;-78
2024/03/18 04:02:30;;;;;;;;;;;8.20;99.90;;;;;;21135999;28;20003;-77
2024/03/18 04:12:30;;;;;;;;;;;8.10;99.90;;;;;;21129499;28;19915;-77
2024/03/18 04:22:31;;;;;;;;;;;8.10;99.90;;;;;;21125004;28;19948;-77
2024/03/18 04:32:32;;;;;;;;;;;8.00;99.90;;;;;;21139479;28;19915;-77
2024/03/18 04:42:33;;;;;;;;;;;8.00;99.90;;;;;;21129059;28;19949;-77
2024/03/18 04:52:35;;;;;;;;;;;8.00;99.90;;;;;;21113332;28;19947;-77
2024/03/18 05:02:36;;;;;;;;;;;8.00;99.90;;;;;;21128440;28;19916;-77
2024/03/18 05:12:37;;;;;;;;;;;8.10;99.90;;;;;;21096037;28;19951;-77
2024/03/18 05:22:39;;;;;;;;;;;8.20;99.90;;;;;;21097311;28;20375;-77
2024/03/18 05:32:40;;;;;;;;;;;8.20;99.90;;;;;;21117030;28;19919;-77
2024/03/18 05:42:41;;;;;;;;;;;8.10;99.90;;;;;;21117843;28;19993;-77
2024/03/18 05:52:41;;;;;;;;;;;8.10;99.90;;;;;;21113284;28;19961;-78
2024/03/18 06:02:42;;;;;;;;;;;8.20;99.90;;;;;;21110982;28;19912;-77
2024/03/18 06:12:43;;;;;;;;;;;8.10;99.90;;;;;;21112920;28;19977;-77
2024/03/18 06:22:46;;;;;;;;;;;8.20;99.90;;;;;;21140058;28;19967;-77
2024/03/18 06:32:46;;;;;;;;;;;8.20;99.90;;;;;;21151893;28;20208;-78
2024/03/18 06:42:51;;;;;;;;;;;8.30;99.90;;;;;;21172550;28;19916;-78
2024/03/18 06:52:51;;;;;;;;;;;8.30;99.90;;;;;;21169063;28;19922;-78
2024/03/18 07:02:52;;;;;;;;;;;8.40;99.90;;;;;;21178730;28;19912;-77
2024/03/18 07:12:54;;;;;;;;;;;8.40;99.90;;;;;;21164134;28;20416;-77
2024/03/18 07:22:55;;;;;;;;;;;8.40;99.90;;;;;;21174317;28;19918;-78
2024/03/18 07:32:55;;;;;;;;;;;8.50;99.90;;;;;;21175964;28;20340;-77
2024/03/18 07:42:56;;;;;;;;;;;8.50;99.90;;;;;;21164540;28;19915;-78
2024/03/18 07:52:57;;;;;;;;;;;8.50;99.90;;;;;;21157862;28;20018;-77
2024/03/18 08:02:57;;;;;;;;;;;8.50;99.90;;;;;;21169416;28;19912;-77
2024/03/18 08:12:58;;;;;;;;;;;8.60;99.90;;;;;;21175757;28;19923;-77
2024/03/18 08:22:59;;;;;;;;;;;8.60;99.90;;;;;;21186556;28;19912;-78
2024/03/18 08:32:59;;;;;;;;;;;8.60;99.90;;;;;;21188954;28;19916;-77
2024/03/18 08:43:00;;;;;;;;;;;8.60;99.90;;;;;;21185257;28;19933;-77
2024/03/18 08:53:01;;;;;;;;;;;8.70;99.90;;;;;;21184515;28;20452;-77
2024/03/18 09:03:03;;;;;;;;;;;8.80;99.90;;;;;;21188343;28;19912;-77
2024/03/18 09:13:03;;;;;;;;;;;8.90;99.90;;;;;;21159976;28;19924;-77
2024/03/18 09:23:04;;;;;;;;;;;9.00;99.90;;;;;;21163909;28;19912;-77
2024/03/18 09:33:05;;;;;;;;;;;9.20;99.90;;;;;;21146345;28;19923;-77
2024/03/18 09:43:09;;;;;;;;;;;9.30;99.90;;;;;;21182380;28;20253;-77
2024/03/18 09:53:12;;;;;;;;;;;9.50;99.90;;;;;;21160256;28;19950;-78
2024/03/18 10:03:19;;;;;;;;;;;9.40;99.90;;;;;;21201403;28;19911;-78
2024/03/18 10:13:23;;;;;;;;;;;9.50;99.90;;;;;;21205211;28;19916;-78
2024/03/18 10:23:25;;;;;;;;;;;9.60;99.90;;;;;;21198848;28;19912;-77
2024/03/18 10:33:26;;;;;;;;;;;9.60;99.90;;;;;;21193176;28;19919;-77
2024/03/18 10:43:35;;;;;;;;;;;9.60;99.90;;;;;;21177596;28;19923;-77
2024/03/18 10:53:37;;;;;;;;;;;9.60;99.90;;;;;;21186121;28;19950;-77
2024/03/18 11:03:48;;;;;;;;;;;9.70;99.90;;;;;;21160443;28;20349;-77
2024/03/18 11:13:52;;;;;;;;;;;9.90;99.90;;;;;;21154995;28;19919;-78
2024/03/18 11:23:57;;;;;;;;;;;10.50;99.90;;;;;;21193289;28;19912;-78
2024/03/18 11:33:58;;;;;;;;;;;11.00;99.90;;;;;;21195001;28;20387;-77
2024/03/18 11:43:58;;;;;;;;;;;11.10;99.90;;;;;;21198348;28;19981;-78
2024/03/18 11:54:01;;;;;;;;;;;11.40;99.90;;;;;;21215094;28;19915;-78
2024/03/18 12:04:02;;;;;;;;;;;12.20;99.90;;;;;;21209228;28;20370;-79
2024/03/18 12:14:04;;;;;;;;;;;12.20;99.90;;;;;;21200818;28;19951;-78
2024/03/18 12:34:24;;;;;;;;;;;11.90;99.90;;;;;;21178312;28;19915;-79
2024/03/18 12:44:26;;;;;;;;;;;12.00;99.90;;;;;;21183955;28;19918;-78
2024/03/18 12:54:26;;;;;;;;;;;12.10;99.90;;;;;;21191978;28;20507;-78
2024/03/18 13:04:27;;;;;;;;;;;11.70;99.90;;;;;;21188573;28;19951;-78
2024/03/18 13:14:28;;;;;;;;;;;11.90;99.90;;;;;;21189560;28;19915;-78
2024/03/18 13:24:32;;;;;;;;;;;11.70;99.90;;;;;;21188652;28;19916;-78
2024/03/18 13:34:33;;;;;;;;;;;11.60;99.90;;;;;;21191783;28;20397;-79
2024/03/18 13:44:34;;;;;;;;;;;11.50;99.90;;;;;;21175541;28;20002;-78
2024/03/18 13:54:34;;;;;;;;;;;11.50;99.90;;;;;;21168558;28;20309;-78
2024/03/18 14:04:35;;;;;;;;;;;11.80;99.90;;;;;;21173738;28;19912;-79
2024/03/18 14:14:35;;;;;;;;;;;12.10;99.90;;;;;;21178349;28;19920;-79
2024/03/18 14:24:42;;;;;;;;;;;12.00;99.90;;;;;;21175337;28;20355;-79
2024/03/18 14:34:43;;;;;;;;;;;12.10;99.90;;;;;;21174945;28;19969;-78
2024/03/18 14:44:43;;;;;;;;;;;12.60;99.90;;;;;;21182545;28;19912;-79
2024/03/18 14:54:44;;;;;;;;;;;14.40;99.90;;;;;;21189160;28;19916;-80
2024/03/18 15:04:45;;;;;;;;;;;14.10;99.90;;;;;;21182099;28;20366;-80
2024/03/18 15:14:45;;;;;;;;;;;14.00;99.90;;;;;;21189026;28;19919;-78
2024/03/18 15:25:13;;;;;;;;;;;14.00;99.90;;;;;;21172408;28;19919;-79
2024/03/18 15:35:14;;;;;;;;;;;13.30;99.90;;;;;;21176206;28;19916;-79
2024/03/18 15:45:15;;;;;;;;;;;12.90;99.90;;;;;;21187660;28;20375;-79
2024/03/18 15:55:16;;;;;;;;;;;12.80;99.90;;;;;;21140476;28;19933;-77
2024/03/18 16:05:17;;;;;;;;;;;14.00;99.90;;;;;;21180220;28;19916;-78
2024/03/18 16:15:17;;;;;;;;;;;13.40;99.90;;;;;;21185680;28;19938;-78
2024/03/18 16:25:18;;;;;;;;;;;13.40;99.90;;;;;;21176031;28;19912;-75
2024/03/18 16:35:19;;;;;;;;;;;13.30;99.90;;;;;;21170182;28;19912;-77
2024/03/18 16:45:19;;;;;;;;;;;13.20;99.90;;;;;;21137595;28;19916;-78
2024/03/18 16:55:20;;;;;;;;;;;13.00;99.90;;;;;;21104201;28;19912;-77
2024/03/18 17:05:21;;;;;;;;;;;12.90;99.90;;;;;;21162165;28;19915;-77
2024/03/18 17:15:22;;;;;;;;;;;12.80;99.90;;;;;;21151665;28;19916;-76
2024/03/18 17:25:24;;;;;;;;;;;12.70;99.90;;;;;;21137666;28;19949;-76
2024/03/18 17:35:24;;;;;;;;;;;12.60;99.90;;;;;;21158403;28;20416;-77
2024/03/18 17:45:29;;;;;;;;;;;12.10;99.90;;;;;;21150905;28;19959;-77
2024/03/18 17:55:29;;;;;;;;;;;11.60;99.90;;;;;;21157263;28;19943;-78
2024/03/18 18:05:30;;;;;;;;;;;11.20;99.90;;;;;;21142497;28;19920;-76
2024/03/18 18:15:31;;;;;;;;;;;10.90;99.90;;;;;;21159695;28;19923;-76
2024/03/18 18:25:33;;;;;;;;;;;10.90;99.90;;;;;;21168268;28;20010;-75
2024/03/18 18:35:33;;;;;;;;;;;10.50;99.90;;;;;;21175264;28;20371;-76
2024/03/18 18:45:34;;;;;;;;;;;10.50;99.90;;;;;;21165750;28;19916;-77
2024/03/18 18:55:35;;;;;;;;;;;10.60;99.90;;;;;;21167279;28;19973;-77
2024/03/18 19:05:35;;;;;;;;;;;10.70;99.90;;;;;;21167715;28;19916;-75
2024/03/18 19:15:36;;;;;;;;;;;10.40;99.90;;;;;;21169470;28;19920;-77
2024/03/18 19:25:37;;;;;;;;;;;10.50;99.90;;;;;;21164125;28;19916;-77
2024/03/18 19:35:43;;;;;;;;;;;10.40;99.90;;;;;;21154103;28;19915;-77
2024/03/18 19:45:43;;;;;;;;;;;10.30;99.90;;;;;;21170991;28;19922;-77
2024/03/18 19:55:46;;;;;;;;;;;10.30;99.90;;;;;;21170091;28;20378;-78
2024/03/18 20:05:47;;;;;;;;;;;10.40;99.90;;;;;;21142155;28;20386;-77
2024/03/18 20:15:47;;;;;;;;;;;10.40;99.90;;;;;;21106341;28;19920;-77
2024/03/18 20:25:49;;;;;;;;;;;10.30;99.90;;;;;;21108776;28;19927;-77
2024/03/18 20:35:50;;;;;;;;;;;10.30;99.90;;;;;;21102061;28;20390;-78
2024/03/18 20:45:50;;;;;;;;;;;10.20;99.90;;;;;;21150412;28;19915;-78
2024/03/18 20:55:51;;;;;;;;;;;10.10;99.90;;;;;;21154770;28;19912;-77
2024/03/18 21:05:52;;;;;;;;;;;10.00;99.90;;;;;;21162716;28;20006;-77
2024/03/18 21:15:53;;;;;;;;;;;10.00;99.90;;;;;;21165549;28;20048;-77
2024/03/18 21:25:53;;;;;;;;;;;10.10;99.90;;;;;;21174427;28;19941;-78
2024/03/18 21:35:54;;;;;;;;;;;10.10;99.90;;;;;;21116201;28;19951;-79
2024/03/18 21:46:05;;;;;;;;;;;9.80;99.90;;;;;;21124439;28;19920;-78
2024/03/18 21:56:06;;;;;;;;;;;9.80;99.90;;;;;;21139445;28;19923;-76
2024/03/18 22:06:07;;;;;;;;;;;9.70;99.90;;;;;;21159755;28;19931;-78
2024/03/18 22:16:07;;;;;;;;;;;9.60;99.90;;;;;;21141870;28;19977;-78
2024/03/18 22:26:08;;;;;;;;;;;9.60;99.90;;;;;;21147139;28;20296;-78
2024/03/18 22:36:10;;;;;;;;;;;9.60;99.90;;;;;;21200472;28;19919;-79
2024/03/18 22:46:10;;;;;;;;;;;9.50;99.90;;;;;;21179338;28;19959;-79
2024/03/18 22:56:15;;;;;;;;;;;9.50;99.90;;;;;;21200978;28;20508;-78
2024/03/18 23:06:16;;;;;;;;;;;9.50;99.90;;;;;;21192149;28;19916;-78
2024/03/18 23:16:16;;;;;;;;;;;9.50;99.90;;;;;;21192689;28;20493;-78
2024/03/18 23:26:17;;;;;;;;;;;9.20;99.90;;;;;;21189421;28;19916;-79
2024/03/18 23:36:18;;;;;;;;;;;9.20;99.90;;;;;;21170150;28;20007;-77
2024/03/18 23:46:21;;;;;;;;;;;9.00;99.90;;;;;;21190787;28;19916;-79
2024/03/18 23:56:22;;;;;;;;;;;8.90;99.90;;;;;;21187145;28;19939;-79
